Hovedside
METAR-TAF:

METAR-TAF

Lufthavner :

Castlegar, Britisk Columbia, Canada

breddegrad: 49-18N, lengdegrad: 117-38W, høyde over havet: 495 m

Gjeldene værobservasjon

Denne rapporten ble laget for 8 timer og 5 minutter siden, klokken 04:00 UTC
Flau vind
Temperatur 4°C
Luftfuktighet 87%
Trykk 1027 hPa
Sikt: 24.1 km
Skyfri himmel

METAR: CYCG 200400Z 00000KT 15SM SKC 04/02 A3032 RMK HZ LAST STFD OBS/NEXT 201300Z SLP285

Tid: 05:05 (12:05 UTC)

Varsel

Denne rapporten ble laget for 11 timer og 27 minutter siden, klokken 00:38 UTC
Varsel gyldig fra 20. klokken 01 UTC til 20. klokken 04 UTC
Vind 3 kt fra skiftende retning
Sikt: 10 km
Få skyer i en høyde av 800 ft
Brutte skyer i en høyde av 22000 ft

TAF: CYCG 200038Z 2001/2004 VRB03KT P6SM FEW008 BKN220 RMK NXT FCST WILL BE ISSUED AT 201445Z

Værobservasjoner og værvarsel for over 4000 flyplasser (METAR- og TAF-rapporter).

Tilgjengelige stasjoner er representert av de røde og gule prikkene på kartet.

Hold musepekeren over prikken for å se navnet på stasjonen.

Klikk så for å se værobservasjoner og -varsler.

For å forandre kartet kan du klikke på den grønne knappen med svart kryss for å zoome inn, på den grønne knappen med strek for å zoome ut, eller på de grønne pilene for å se tilstøtende kart.


METAR-TAF: